createdAt,value
2023-01-28T00:01:16.284Z,401.83
2023-01-28T00:03:43.846Z,395.98
2023-01-28T00:06:12.968Z,400.77
2023-01-28T00:08:40.644Z,391.17
2023-01-28T00:11:08.195Z,310.02
2023-01-28T00:13:35.591Z,295.65
2023-01-28T00:16:04.981Z,382.65
2023-01-28T00:18:33.270Z,392.92
2023-01-28T00:21:04.946Z,408.00
2023-01-28T00:23:33.778Z,307.13
2023-01-28T00:26:01.636Z,388.13
2023-01-28T00:28:28.832Z,293.90
2023-01-28T00:30:56.076Z,409.45
2023-01-28T00:33:23.573Z,305.48
2023-01-28T00:36:01.089Z,303.20
2023-01-28T00:38:28.934Z,398.02
2023-01-28T00:40:56.472Z,298.38
2023-01-28T00:43:23.654Z,294.23
2023-01-28T00:45:50.900Z,405.13
2023-01-28T00:48:18.076Z,300.55
2023-01-28T00:50:45.609Z,303.65
2023-01-28T00:53:12.878Z,292.05
2023-01-28T00:55:40.002Z,315.42
2023-01-28T00:58:07.140Z,403.58
2023-01-28T01:00:34.324Z,408.45
2023-01-28T01:03:01.458Z,405.58
2023-01-28T01:05:29.671Z,329.52
2023-01-28T01:07:56.890Z,312.88
2023-01-28T01:10:24.084Z,407.10
2023-01-28T01:12:51.455Z,418.38
2023-01-28T01:15:19.305Z,318.20
2023-01-28T01:17:47.931Z,329.08
2023-01-28T01:20:17.864Z,315.45
2023-01-28T01:22:45.132Z,421.88
2023-01-28T01:25:13.379Z,326.60
2023-01-28T01:27:40.740Z,326.98
2023-01-28T01:30:09.221Z,413.63
2023-01-28T01:32:36.750Z,409.52
2023-01-28T01:35:05.972Z,423.15
2023-01-28T01:37:33.142Z,324.30
2023-01-28T01:40:02.080Z,337.73
2023-01-28T01:42:29.462Z,310.83
2023-01-28T01:44:59.507Z,425.65
2023-01-28T01:47:49.938Z,330.92
2023-01-28T01:50:30.693Z,330.70
2023-01-28T01:53:01.828Z,322.88
2023-01-28T01:55:31.014Z,330.30
2023-01-28T01:57:59.318Z,341.90
2023-01-28T02:00:26.552Z,333.13
2023-01-28T02:02:54.350Z,332.70
2023-01-28T02:05:23.021Z,428.15
2023-01-28T02:07:51.652Z,435.27
2023-01-28T02:10:19.188Z,447.08
2023-01-28T02:12:48.586Z,386.67
2023-01-28T02:15:18.622Z,393.88
2023-01-28T02:17:45.911Z,306.55
2023-01-28T02:20:14.586Z,295.45
2023-01-28T02:22:41.773Z,384.63
2023-01-28T02:25:15.260Z,311.70
2023-01-28T02:27:58.479Z,401.02
2023-01-28T02:30:31.847Z,317.17
2023-01-28T02:33:01.578Z,297.45
2023-01-28T02:35:31.826Z,394.00
2023-01-28T02:38:08.770Z,398.70
2023-01-28T02:40:58.878Z,409.88
2023-01-28T02:43:33.136Z,307.00
2023-01-28T02:46:19.292Z,289.35
2023-01-28T02:48:47.078Z,406.75
2023-01-28T02:51:20.993Z,394.58
2023-01-28T02:53:56.194Z,409.70
2023-01-28T02:56:29.606Z,410.13
2023-01-28T02:59:34.153Z,398.23
2023-01-28T03:02:11.984Z,379.17
2023-01-28T03:04:42.318Z,308.58
2023-01-28T03:07:12.206Z,290.95
2023-01-28T03:09:40.071Z,388.77
2023-01-28T03:12:25.867Z,396.17
2023-01-28T03:15:31.722Z,395.30
2023-01-28T03:18:21.052Z,288.95
2023-01-28T03:21:14.154Z,286.45
2023-01-28T03:24:18.349Z,328.25
2023-01-28T03:27:10.393Z,389.60
2023-01-28T03:29:56.498Z,307.73
2023-01-28T03:32:42.833Z,313.00
2023-01-28T03:35:30.203Z,296.75
2023-01-28T03:38:00.356Z,330.98
2023-01-28T03:40:28.103Z,407.85
2023-01-28T03:42:56.825Z,319.17
2023-01-28T03:45:23.971Z,410.17
2023-01-28T03:47:51.195Z,324.42
2023-01-28T03:50:18.382Z,395.45
2023-01-28T03:52:45.576Z,381.42
2023-01-28T03:55:15.799Z,308.25
2023-01-28T03:57:44.880Z,308.30
2023-01-28T04:00:12.417Z,405.00
2023-01-28T04:02:40.315Z,397.00
2023-01-28T04:05:13.797Z,324.70
2023-01-28T04:07:41.218Z,401.02
2023-01-28T04:10:08.945Z,416.17
2023-01-28T04:12:37.898Z,407.23
2023-01-28T04:15:15.722Z,320.48
2023-01-28T04:17:47.109Z,321.33
2023-01-28T04:20:14.823Z,317.02
2023-01-28T04:22:42.053Z,324.95
2023-01-28T04:25:09.497Z,384.95
2023-01-28T04:27:36.697Z,318.05
2023-01-28T04:30:04.092Z,412.23
2023-01-28T04:32:31.280Z,398.65
2023-01-28T04:34:58.529Z,309.63
2023-01-28T04:37:25.722Z,313.05
2023-01-28T04:39:52.914Z,402.15
2023-01-28T04:42:20.128Z,302.23
2023-01-28T04:44:47.328Z,394.63
2023-01-28T04:47:14.529Z,308.42
2023-01-28T04:49:41.698Z,388.80
2023-01-28T04:52:08.957Z,304.48
2023-01-28T04:54:36.164Z,402.65
2023-01-28T04:57:03.493Z,403.23
2023-01-28T04:59:30.657Z,399.10
2023-01-28T05:01:57.845Z,315.88
2023-01-28T05:04:24.989Z,311.20
2023-01-28T05:06:52.206Z,392.58
2023-01-28T05:09:19.702Z,401.70
2023-01-28T05:11:46.951Z,314.10
2023-01-28T05:14:14.074Z,402.60
2023-01-28T05:16:41.238Z,313.52
2023-01-28T05:19:08.432Z,302.73
2023-01-28T05:21:35.658Z,396.83
2023-01-28T05:24:02.949Z,386.35
2023-01-28T05:26:30.206Z,403.27
2023-01-28T05:28:57.365Z,308.65
2023-01-28T05:31:24.543Z,396.40
2023-01-28T05:33:53.094Z,393.92
2023-01-28T05:36:20.577Z,304.00
2023-01-28T05:38:47.739Z,301.50
2023-01-28T05:41:14.864Z,395.73
2023-01-28T05:43:41.990Z,396.05
2023-01-28T05:46:09.147Z,379.45
2023-01-28T05:48:36.334Z,311.13
2023-01-28T05:51:05.229Z,313.90
2023-01-28T05:53:33.057Z,397.92
2023-01-28T05:56:00.171Z,301.52
2023-01-28T05:58:30.905Z,382.40
2023-01-28T06:00:58.235Z,391.17
2023-01-28T06:03:25.471Z,400.33
2023-01-28T06:05:52.649Z,298.23
2023-01-28T06:08:19.738Z,395.63
2023-01-28T06:10:47.579Z,397.27
2023-01-28T06:13:14.704Z,301.40
2023-01-28T06:15:41.860Z,399.80
2023-01-28T06:18:09.097Z,395.95
2023-01-28T06:20:36.253Z,399.83
2023-01-28T06:23:03.437Z,398.23
2023-01-28T06:25:30.621Z,405.42
2023-01-28T06:27:57.739Z,317.50
2023-01-28T06:30:24.916Z,311.55
2023-01-28T06:32:56.043Z,303.77
2023-01-28T06:35:23.526Z,400.52
2023-01-28T06:37:50.910Z,401.90
2023-01-28T06:40:18.330Z,332.63
2023-01-28T06:42:45.858Z,403.20
2023-01-28T06:45:13.035Z,401.85
2023-01-28T06:47:40.523Z,414.70
2023-01-28T06:50:09.253Z,309.98
2023-01-28T06:52:36.430Z,407.02
2023-01-28T06:55:03.646Z,408.52
2023-01-28T06:57:30.779Z,405.55
2023-01-28T06:59:57.949Z,390.30
2023-01-28T07:02:31.235Z,405.02
2023-01-28T07:07:25.459Z,307.73
2023-01-28T07:09:52.570Z,397.15
2023-01-28T07:12:19.738Z,399.20
2023-01-28T07:14:46.822Z,314.63
2023-01-28T07:17:14.063Z,302.70
2023-01-28T07:19:41.368Z,299.27
2023-01-28T07:22:08.586Z,397.70
2023-01-28T07:24:35.799Z,306.17
2023-01-28T07:27:04.612Z,393.70
2023-01-28T07:29:31.751Z,381.58
2023-01-28T07:31:58.972Z,395.77
2023-01-28T07:34:26.204Z,393.00
2023-01-28T07:36:53.313Z,378.92
2023-01-28T07:39:20.489Z,389.58
2023-01-28T07:41:47.674Z,393.33
2023-01-28T07:44:14.821Z,301.20
2023-01-28T07:46:42.076Z,384.15
2023-01-28T07:49:09.165Z,384.63
2023-01-28T07:51:36.373Z,303.70
2023-01-28T07:54:03.568Z,303.10
2023-01-28T07:56:32.020Z,374.35
2023-01-28T07:58:59.132Z,300.95
2023-01-28T08:01:26.840Z,374.17
2023-01-28T08:03:54.408Z,375.38
2023-01-28T08:06:21.514Z,381.23
2023-01-28T08:08:49.019Z,393.75
2023-01-28T08:11:16.202Z,297.95
2023-01-28T08:13:43.329Z,403.92
2023-01-28T08:16:10.503Z,295.23
2023-01-28T08:18:37.695Z,382.73
2023-01-28T08:21:05.222Z,308.02
2023-01-28T08:23:34.517Z,386.55
2023-01-28T08:26:01.772Z,304.70
2023-01-28T08:28:28.998Z,308.70
2023-01-28T08:30:56.242Z,393.45
2023-01-28T08:33:23.475Z,317.42
2023-01-28T08:35:50.624Z,303.50
2023-01-28T08:38:18.072Z,292.13
2023-01-28T08:40:45.287Z,294.67
2023-01-28T08:43:12.554Z,287.15
2023-01-28T08:45:42.768Z,394.30
2023-01-28T08:48:12.809Z,390.45
2023-01-28T08:50:40.455Z,398.70
2023-01-28T08:53:08.878Z,317.88
2023-01-28T08:55:36.293Z,402.35
2023-01-28T08:58:06.976Z,404.95
2023-01-28T09:00:34.437Z,312.48
2023-01-28T09:03:03.844Z,330.77
2023-01-28T09:05:33.009Z,317.70
2023-01-28T09:08:04.571Z,316.13
2023-01-28T09:10:31.691Z,303.90
2023-01-28T09:12:58.966Z,319.00
2023-01-28T09:15:26.108Z,309.00
2023-01-28T09:17:58.270Z,408.83
2023-01-28T09:20:25.631Z,313.27
2023-01-28T09:22:52.942Z,306.30
2023-01-28T09:25:20.135Z,304.02
2023-01-28T09:27:47.277Z,384.73
2023-01-28T09:30:15.080Z,401.40
2023-01-28T09:32:42.471Z,402.13
2023-01-28T09:35:10.060Z,399.42
2023-01-28T09:37:37.432Z,403.85
2023-01-28T09:40:05.664Z,404.98
2023-01-28T09:42:32.794Z,323.63
2023-01-28T09:44:59.965Z,392.33
2023-01-28T09:47:28.968Z,316.08
2023-01-28T09:49:58.956Z,315.88
2023-01-28T09:52:27.221Z,326.88
2023-01-28T09:55:02.503Z,311.42
2023-01-28T09:57:35.955Z,408.52
2023-01-28T10:00:04.678Z,397.27
2023-01-28T10:02:50.673Z,327.70
2023-01-28T10:05:17.780Z,320.27
2023-01-28T10:07:49.052Z,406.33
2023-01-28T10:10:28.874Z,314.85
2023-01-28T10:12:59.429Z,313.48
2023-01-28T10:15:29.574Z,308.45
2023-01-28T10:18:16.536Z,415.25
2023-01-28T10:20:48.530Z,404.15
2023-01-28T10:23:25.986Z,325.85
2023-01-28T10:25:54.182Z,406.40
2023-01-28T10:28:24.659Z,397.52
2023-01-28T10:30:52.459Z,405.38
2023-01-28T10:33:19.598Z,394.35
2023-01-28T10:35:48.450Z,393.15
2023-01-28T10:38:16.904Z,402.92
2023-01-28T10:40:47.989Z,309.27
2023-01-28T10:43:20.078Z,301.48
2023-01-28T10:45:50.439Z,298.55
2023-01-28T10:48:56.243Z,295.38
2023-01-28T10:51:36.924Z,306.27
2023-01-28T10:54:06.017Z,307.52
2023-01-28T10:56:35.967Z,310.67
2023-01-28T10:59:03.181Z,393.85
2023-01-28T11:01:42.334Z,303.45
2023-01-28T11:04:24.257Z,392.80
2023-01-28T11:07:02.139Z,327.38
2023-01-28T11:09:29.313Z,414.00
2023-01-28T11:11:56.502Z,325.63
2023-01-28T11:14:26.177Z,406.90
2023-01-28T11:16:54.613Z,311.80
2023-01-28T11:21:55.330Z,250.80
2023-01-28T11:24:27.748Z,226.32
2023-01-28T11:26:56.155Z,133.63
2023-01-28T11:29:26.087Z,276.08
2023-01-28T11:31:53.484Z,295.50
2023-01-28T11:34:21.092Z,301.98
2023-01-28T11:37:08.517Z,190.30
2023-01-28T11:39:35.698Z,132.55
2023-01-28T11:42:13.717Z,83.72
2023-01-28T11:44:41.001Z,85.82
2023-01-28T11:47:08.123Z,77.95
2023-01-28T11:49:51.354Z,19.42
2023-01-28T11:52:55.484Z,11.25
2023-01-28T11:55:25.823Z,13.55
2023-01-28T11:57:59.048Z,9.55
2023-01-28T12:03:17.253Z,7.40
2023-01-28T12:05:52.242Z,7.72
2023-01-28T12:08:23.232Z,9.88
2023-01-28T12:10:56.460Z,8.10
2023-01-28T12:13:23.619Z,8.60
2023-01-28T12:16:06.791Z,9.20
2023-01-28T12:18:39.979Z,8.63
2023-01-28T12:21:23.079Z,9.70
2023-01-28T12:24:10.298Z,9.23
2023-01-28T12:26:50.997Z,9.18
2023-01-28T12:29:26.928Z,8.00
2023-01-28T12:31:54.229Z,9.13
2023-01-28T12:34:39.893Z,9.00
2023-01-28T12:37:22.297Z,7.63
2023-01-28T12:39:52.571Z,11.80
2023-01-28T12:42:31.404Z,8.38
2023-01-28T12:45:12.050Z,10.80
2023-01-28T12:47:40.625Z,9.77
2023-01-28T12:50:20.743Z,7.90
2023-01-28T12:52:50.926Z,10.85
2023-01-28T12:55:18.116Z,9.25
2023-01-28T12:57:45.878Z,11.02
2023-01-28T13:00:13.205Z,8.38
2023-01-28T13:02:42.323Z,7.55
2023-01-28T13:05:12.950Z,9.10
2023-01-28T13:07:57.889Z,9.48
2023-01-28T13:10:31.003Z,9.85
2023-01-28T13:15:25.605Z,9.65
2023-01-28T13:17:55.883Z,9.80
2023-01-28T13:20:38.434Z,9.98
2023-01-28T13:23:07.145Z,8.57
2023-01-28T13:25:48.705Z,10.20
2023-01-28T13:28:26.735Z,10.55
2023-01-28T13:31:01.288Z,10.75
2023-01-28T13:33:30.564Z,10.25
2023-01-28T13:35:58.204Z,8.93
2023-01-28T13:38:25.505Z,8.60
2023-01-28T13:41:00.121Z,8.25
2023-01-28T13:43:47.207Z,8.23
2023-01-28T13:46:26.908Z,6.53
2023-01-28T13:48:55.703Z,10.25
2023-01-28T13:51:33.816Z,10.57
2023-01-28T13:54:04.099Z,7.18
2023-01-28T13:56:57.287Z,8.55
2023-01-28T13:59:42.650Z,8.75
2023-01-28T14:02:48.244Z,7.68
2023-01-28T14:05:56.227Z,8.77
2023-01-28T14:08:31.190Z,6.15
2023-01-28T14:11:04.410Z,8.32
2023-01-28T14:13:39.182Z,7.35
2023-01-28T14:16:06.387Z,8.43
2023-01-28T14:18:38.158Z,7.72
2023-01-28T14:21:10.884Z,8.27
2023-01-28T14:23:39.565Z,9.20
2023-01-28T14:26:09.873Z,6.93
2023-01-28T14:28:43.173Z,7.15
2023-01-28T14:31:34.149Z,7.43
2023-01-28T14:34:12.198Z,10.02
2023-01-28T14:36:40.923Z,7.97
2023-01-28T14:39:16.080Z,7.82
2023-01-28T14:41:44.582Z,9.60
2023-01-28T14:44:13.996Z,7.47
2023-01-28T14:46:46.973Z,9.57
2023-01-28T14:51:41.180Z,10.70
2023-01-28T14:54:08.342Z,10.82
2023-01-28T14:56:36.549Z,10.38
2023-01-28T14:59:08.642Z,10.25
2023-01-28T15:01:35.852Z,9.60
2023-01-28T15:04:03.053Z,10.35
2023-01-28T15:06:31.929Z,10.45
2023-01-28T15:09:09.947Z,8.45
2023-01-28T15:11:41.770Z,9.65
2023-01-28T15:14:14.454Z,7.25
2023-01-28T15:16:41.578Z,11.23
2023-01-28T15:19:09.684Z,8.40
2023-01-28T15:21:36.881Z,11.25
2023-01-28T15:24:04.334Z,9.45
2023-01-28T15:26:35.121Z,8.77
2023-01-28T15:29:02.271Z,10.55
2023-01-28T15:31:33.462Z,9.63
2023-01-28T15:34:02.030Z,8.48
2023-01-28T15:36:29.978Z,10.48
2023-01-28T15:38:57.451Z,13.10
2023-01-28T15:41:28.177Z,11.90
2023-01-28T15:43:55.429Z,14.32
2023-01-28T15:46:22.866Z,23.45
2023-01-28T15:48:54.225Z,15.05
2023-01-28T15:51:24.167Z,12.82
2023-01-28T15:53:52.761Z,13.98
2023-01-28T15:56:25.679Z,18.13
2023-01-28T15:58:52.863Z,13.27
2023-01-28T16:01:21.113Z,15.25
2023-01-28T16:04:00.751Z,13.60
2023-01-28T16:06:31.791Z,13.77
2023-01-28T16:09:00.211Z,12.90
2023-01-28T16:11:38.557Z,14.35
2023-01-28T16:14:05.819Z,13.80
2023-01-28T16:16:34.910Z,14.93
2023-01-28T16:19:04.360Z,12.10
2023-01-28T16:21:34.546Z,15.70
2023-01-28T16:24:01.741Z,14.35
2023-01-28T16:26:30.578Z,15.23
2023-01-28T16:28:59.175Z,14.35
2023-01-28T16:31:26.476Z,16.60
2023-01-28T16:33:53.751Z,21.15
2023-01-28T16:36:20.879Z,20.48
2023-01-28T16:38:48.153Z,18.42
2023-01-28T16:41:20.299Z,24.42
2023-01-28T16:43:47.510Z,18.27
2023-01-28T16:46:14.697Z,16.25
2023-01-28T16:48:42.006Z,16.08
2023-01-28T16:51:15.745Z,18.13
2023-01-28T16:53:43.034Z,15.23
2023-01-28T16:56:30.432Z,17.83
2023-01-28T16:59:01.587Z,18.73
2023-01-28T17:01:29.113Z,15.82
2023-01-28T17:03:56.760Z,21.85
2023-01-28T17:06:24.065Z,17.80
2023-01-28T17:08:51.253Z,16.25
2023-01-28T17:11:18.350Z,33.42
2023-01-28T17:13:45.538Z,26.27
2023-01-28T17:16:13.077Z,20.85
2023-01-28T17:18:40.243Z,17.65
2023-01-28T17:21:07.553Z,19.08
2023-01-28T17:23:34.870Z,18.10
2023-01-28T17:26:06.327Z,19.10
2023-01-28T17:28:33.687Z,17.20
2023-01-28T17:31:01.296Z,21.65
2023-01-28T17:33:28.471Z,20.75
2023-01-28T17:35:57.755Z,20.10
2023-01-28T17:38:25.118Z,18.05
2023-01-28T17:40:52.332Z,21.20
2023-01-28T17:43:19.518Z,23.23
2023-01-28T17:45:47.090Z,18.13
2023-01-28T17:48:14.347Z,17.42
2023-01-28T17:50:41.613Z,22.70
2023-01-28T17:53:08.787Z,18.80
2023-01-28T17:55:37.239Z,21.08
2023-01-28T17:58:04.889Z,22.80
2023-01-28T18:00:32.215Z,27.60
2023-01-28T18:02:59.566Z,24.48
2023-01-28T18:05:26.800Z,24.45
2023-01-28T18:07:53.913Z,23.85
2023-01-28T18:10:21.364Z,29.48
2023-01-28T18:12:48.578Z,24.90
2023-01-28T18:15:16.258Z,21.15
2023-01-28T18:17:43.632Z,23.17
2023-01-28T18:20:11.153Z,23.35
2023-01-28T18:22:38.289Z,21.58
2023-01-28T18:25:05.656Z,22.77
2023-01-28T18:27:32.990Z,21.65
2023-01-28T18:30:00.240Z,24.77
2023-01-28T18:32:27.333Z,23.65
2023-01-28T18:34:54.578Z,24.17
2023-01-28T18:37:21.817Z,20.52
2023-01-28T18:39:48.989Z,20.73
2023-01-28T18:42:16.221Z,21.20
2023-01-28T18:44:43.486Z,20.75
2023-01-28T18:47:11.478Z,24.85
2023-01-28T18:49:38.746Z,22.92
2023-01-28T18:52:06.029Z,27.95
2023-01-28T18:54:33.385Z,19.73
2023-01-28T18:57:00.566Z,21.95
2023-01-28T18:59:28.115Z,26.27
2023-01-28T19:01:55.365Z,25.42
2023-01-28T19:04:22.594Z,28.85
2023-01-28T19:06:49.753Z,23.63
2023-01-28T19:09:17.766Z,23.48
2023-01-28T19:11:45.040Z,24.83
2023-01-28T19:14:14.282Z,27.10
2023-01-28T19:16:41.699Z,22.08
2023-01-28T19:19:08.953Z,20.83
2023-01-28T19:21:36.229Z,26.20
2023-01-28T19:24:09.496Z,23.80
2023-01-28T19:26:38.063Z,27.63
2023-01-28T19:29:08.005Z,26.35
2023-01-28T19:34:30.994Z,30.30
2023-01-28T19:36:58.151Z,23.83
2023-01-28T19:39:25.308Z,25.90
2023-01-28T19:41:52.560Z,25.10
2023-01-28T19:44:19.925Z,26.20
2023-01-28T19:46:47.213Z,23.10
2023-01-28T19:49:15.670Z,26.83
2023-01-28T19:51:42.882Z,28.27
2023-01-28T19:54:10.132Z,24.73
2023-01-28T19:56:37.691Z,28.15
2023-01-28T19:59:04.987Z,24.48
2023-01-28T20:01:32.335Z,23.23
2023-01-28T20:04:00.590Z,24.00
2023-01-28T20:06:31.642Z,26.55
2023-01-28T20:09:09.904Z,24.30
2023-01-28T20:11:37.159Z,22.85
2023-01-28T20:14:04.434Z,25.23
2023-01-28T20:16:33.005Z,22.00
2023-01-28T20:19:05.121Z,28.75
2023-01-28T20:21:33.129Z,29.52
2023-01-28T20:24:01.498Z,29.48
2023-01-28T20:26:31.633Z,27.45
2023-01-28T20:29:01.678Z,27.92
2023-01-28T20:31:28.985Z,30.85
2023-01-28T20:33:56.307Z,28.23
2023-01-28T20:36:23.541Z,30.75
2023-01-28T20:38:50.815Z,29.55
2023-01-28T20:41:22.684Z,30.75
2023-01-28T20:43:50.399Z,30.42
2023-01-28T20:46:19.359Z,35.30
2023-01-28T20:48:47.011Z,29.50
2023-01-28T20:51:18.860Z,26.80
2023-01-28T20:53:46.276Z,26.08
2023-01-28T20:56:14.488Z,27.30
2023-01-28T20:58:42.301Z,26.50
2023-01-28T21:01:16.616Z,25.88
2023-01-28T21:03:43.803Z,24.83
2023-01-28T21:06:10.987Z,29.30
2023-01-28T21:08:38.218Z,30.42
2023-01-28T21:11:06.644Z,27.55
2023-01-28T21:13:33.826Z,32.65
2023-01-28T21:16:01.005Z,25.48
2023-01-28T21:18:28.264Z,27.50
2023-01-28T21:20:55.564Z,29.35
2023-01-28T21:23:25.937Z,27.00
2023-01-28T21:25:53.130Z,27.35
2023-01-28T21:28:20.706Z,25.02
2023-01-28T21:30:47.943Z,25.95
2023-01-28T21:33:15.136Z,24.67
2023-01-28T21:35:43.525Z,30.95
2023-01-28T21:38:11.154Z,28.02
2023-01-28T21:40:38.700Z,29.10
2023-01-28T21:43:07.136Z,32.13
2023-01-28T21:45:34.341Z,28.55
2023-01-28T21:48:01.545Z,33.45
2023-01-28T21:50:28.982Z,33.85
2023-01-28T21:52:56.166Z,35.42
2023-01-28T21:55:23.433Z,30.65
2023-01-28T21:58:10.599Z,27.25
2023-01-28T22:00:37.823Z,28.02
2023-01-28T22:03:05.002Z,30.40
2023-01-28T22:05:32.171Z,29.38
2023-01-28T22:07:59.403Z,30.52
2023-01-28T22:10:26.570Z,27.42
2023-01-28T22:12:53.775Z,28.40
2023-01-28T22:15:21.219Z,32.15
2023-01-28T22:17:48.393Z,26.75
2023-01-28T22:20:15.823Z,33.65
2023-01-28T22:22:43.232Z,25.92
2023-01-28T22:25:10.624Z,31.63
2023-01-28T22:27:37.753Z,30.75
2023-01-28T22:30:05.104Z,32.42
2023-01-28T22:32:32.203Z,32.05
2023-01-28T22:35:01.967Z,30.45
2023-01-28T22:37:29.048Z,29.30
2023-01-28T22:39:56.306Z,29.45
2023-01-28T22:42:23.571Z,34.95
2023-01-28T22:44:50.709Z,29.63
2023-01-28T22:47:17.873Z,30.80
2023-01-28T22:49:45.095Z,30.90
2023-01-28T22:52:12.368Z,33.25
2023-01-28T22:54:39.524Z,34.97
2023-01-28T22:57:07.794Z,28.75
2023-01-28T22:59:34.947Z,30.58
2023-01-28T23:02:02.227Z,31.40
2023-01-28T23:04:29.400Z,28.13
2023-01-28T23:06:56.621Z,27.02
2023-01-28T23:09:23.869Z,28.00
2023-01-28T23:11:51.023Z,35.72
2023-01-28T23:14:36.667Z,29.38
2023-01-28T23:17:22.682Z,27.95
2023-01-28T23:20:08.502Z,30.80
2023-01-28T23:22:54.420Z,29.90
2023-01-28T23:25:23.268Z,33.03
2023-01-28T23:27:50.503Z,33.30
2023-01-28T23:30:19.680Z,31.67
2023-01-28T23:32:48.585Z,33.97
2023-01-28T23:35:15.995Z,32.72
2023-01-28T23:37:43.246Z,42.25
2023-01-28T23:40:10.908Z,32.97
2023-01-28T23:42:39.494Z,32.40
2023-01-28T23:45:06.958Z,33.60
2023-01-28T23:47:34.381Z,41.15
2023-01-28T23:50:01.969Z,34.75
2023-01-28T23:52:31.743Z,32.25
2023-01-28T23:54:59.089Z,36.75
2023-01-28T23:57:26.348Z,33.15
2023-01-28T23:59:56.785Z,37.85
